createdAt,value
2018-07-17T00:01:56.293Z,21.30
2018-07-17T00:04:24.781Z,21.30
2018-07-17T00:06:53.157Z,21.30
2018-07-17T00:09:21.606Z,21.50
2018-07-17T00:11:50.011Z,21.50
2018-07-17T00:14:18.424Z,21.50
2018-07-17T00:16:46.804Z,21.50
2018-07-17T00:19:15.222Z,21.50
2018-07-17T00:21:43.614Z,21.50
2018-07-17T00:24:11.967Z,21.50
2018-07-17T00:26:40.344Z,21.50
2018-07-17T00:29:08.783Z,21.50
2018-07-17T00:31:37.121Z,21.50
2018-07-17T00:34:05.759Z,21.40
2018-07-17T00:36:34.153Z,21.30
2018-07-17T00:39:02.592Z,21.30
2018-07-17T00:41:30.939Z,21.30
2018-07-17T00:43:59.326Z,21.20
2018-07-17T00:46:27.709Z,21.20
2018-07-17T00:48:56.187Z,21.10
2018-07-17T00:51:24.552Z,21.20
2018-07-17T00:53:59.255Z,21.10
2018-07-17T00:56:27.666Z,21.10
2018-07-17T00:58:56.059Z,21.10
2018-07-17T01:01:30.187Z,21.10
2018-07-17T01:04:03.824Z,21.10
2018-07-17T01:06:37.551Z,21.10
2018-07-17T01:09:12.700Z,21.10
2018-07-17T01:11:46.774Z,21.10
2018-07-17T01:14:22.171Z,21.10
2018-07-17T01:16:50.529Z,21.10
2018-07-17T01:19:18.924Z,21.10
2018-07-17T01:21:47.295Z,21.00
2018-07-17T01:24:15.675Z,21.00
2018-07-17T01:26:44.038Z,21.00
2018-07-17T01:29:12.498Z,21.00
2018-07-17T01:31:40.867Z,21.00
2018-07-17T01:34:09.227Z,21.00
2018-07-17T01:36:37.592Z,21.00
2018-07-17T01:39:10.231Z,21.00
2018-07-17T01:41:38.584Z,21.00
2018-07-17T01:44:07.060Z,21.10
2018-07-17T01:46:35.484Z,21.10
2018-07-17T01:49:03.854Z,21.20
2018-07-17T01:51:32.235Z,21.20
2018-07-17T01:54:00.612Z,21.10
2018-07-17T01:56:28.989Z,21.00
2018-07-17T01:58:57.353Z,21.00
2018-07-17T02:01:25.708Z,21.00
2018-07-17T02:03:54.067Z,21.00
2018-07-17T02:06:22.526Z,21.00
2018-07-17T02:08:50.895Z,21.00
2018-07-17T02:11:19.258Z,21.00
2018-07-17T02:13:47.870Z,21.00
2018-07-17T02:16:22.885Z,21.00
2018-07-17T02:18:51.313Z,21.00
2018-07-17T02:21:19.650Z,21.00
2018-07-17T02:23:48.000Z,21.00
2018-07-17T02:26:16.368Z,20.90
2018-07-17T02:28:44.671Z,20.90
2018-07-17T02:31:13.050Z,20.90
2018-07-17T02:33:41.428Z,20.90
2018-07-17T02:36:09.806Z,20.90
2018-07-17T02:38:38.133Z,20.80
2018-07-17T02:41:06.576Z,20.70
2018-07-17T02:43:34.993Z,20.70
2018-07-17T02:46:03.422Z,20.70
2018-07-17T02:48:31.786Z,20.70
2018-07-17T02:51:00.116Z,20.70
2018-07-17T02:53:28.767Z,20.60
2018-07-17T02:55:57.135Z,20.60
2018-07-17T02:58:25.459Z,20.70
2018-07-17T03:00:53.819Z,20.60
2018-07-17T03:03:22.296Z,20.50
2018-07-17T03:05:50.648Z,20.50
2018-07-17T03:08:19.034Z,20.50
2018-07-17T03:10:47.409Z,20.40
2018-07-17T03:13:15.750Z,20.40
2018-07-17T03:15:44.094Z,20.40
2018-07-17T03:18:12.413Z,20.40
2018-07-17T03:20:40.753Z,20.30
2018-07-17T03:23:09.104Z,20.30
2018-07-17T03:25:37.449Z,20.20
2018-07-17T03:28:06.095Z,20.30
2018-07-17T03:30:34.463Z,20.20
2018-07-17T03:33:02.787Z,20.20
2018-07-17T03:35:31.156Z,20.20
2018-07-17T03:37:59.539Z,20.20
2018-07-17T03:40:27.946Z,20.10
2018-07-17T03:42:56.299Z,20.00
2018-07-17T03:45:24.684Z,20.00
2018-07-17T03:47:53.048Z,20.00
2018-07-17T03:50:21.420Z,20.00
2018-07-17T03:52:49.851Z,20.00
2018-07-17T03:55:18.175Z,19.90
2018-07-17T03:57:46.523Z,19.90
2018-07-17T04:00:14.932Z,19.90
2018-07-17T04:02:43.562Z,19.80
2018-07-17T04:05:11.858Z,19.80
2018-07-17T04:07:40.300Z,19.70
2018-07-17T04:10:08.640Z,19.70
2018-07-17T04:12:37.005Z,19.70
2018-07-17T04:15:05.403Z,19.70
2018-07-17T04:17:33.743Z,19.80
2018-07-17T04:20:02.134Z,19.80
2018-07-17T04:22:30.518Z,19.90
2018-07-17T04:24:58.854Z,20.00
2018-07-17T04:27:27.198Z,19.90
2018-07-17T04:29:55.592Z,19.70
2018-07-17T04:32:23.942Z,19.80
2018-07-17T04:34:52.307Z,19.70
2018-07-17T04:37:20.669Z,19.70
2018-07-17T04:39:49.135Z,19.80
2018-07-17T04:42:17.485Z,19.90
2018-07-17T04:44:45.896Z,19.80
2018-07-17T04:47:14.239Z,19.90
2018-07-17T04:49:42.589Z,20.00
2018-07-17T04:52:10.974Z,19.90
2018-07-17T04:54:39.633Z,19.80
2018-07-17T04:57:08.359Z,19.90
2018-07-17T04:59:36.730Z,20.00
2018-07-17T05:02:05.099Z,19.90
2018-07-17T05:04:33.464Z,19.90
2018-07-17T05:07:01.824Z,20.00
2018-07-17T05:09:30.173Z,19.90
2018-07-17T05:11:58.567Z,19.90
2018-07-17T05:14:26.926Z,19.90
2018-07-17T05:16:55.357Z,20.00
2018-07-17T05:19:23.804Z,20.10
2018-07-17T05:21:52.137Z,20.10
2018-07-17T05:24:20.476Z,20.10
2018-07-17T05:26:48.890Z,20.10
2018-07-17T05:29:17.514Z,20.10
2018-07-17T05:31:45.878Z,20.10
2018-07-17T05:36:48.855Z,20.40
2018-07-17T05:39:17.172Z,20.30
2018-07-17T05:41:45.614Z,20.30
2018-07-17T05:44:14.051Z,20.30
2018-07-17T05:46:42.438Z,20.40
2018-07-17T05:49:10.772Z,20.40
2018-07-17T05:51:39.146Z,20.40
2018-07-17T05:54:07.730Z,20.50
2018-07-17T05:56:36.126Z,20.00
2018-07-17T05:59:07.426Z,20.50
2018-07-17T06:01:35.882Z,20.50
2018-07-17T06:04:04.242Z,20.50
2018-07-17T06:06:32.584Z,20.60
2018-07-17T06:09:01.019Z,20.60
2018-07-17T06:11:29.399Z,20.70
2018-07-17T06:13:57.852Z,20.70
2018-07-17T06:16:26.228Z,20.80
2018-07-17T06:18:54.730Z,20.80
2018-07-17T06:21:25.064Z,20.80
2018-07-17T06:23:53.454Z,20.80
2018-07-17T06:26:21.764Z,20.90
2018-07-17T06:28:50.081Z,20.90
2018-07-17T06:31:18.600Z,21.00
2018-07-17T06:33:46.959Z,21.00
2018-07-17T06:36:15.435Z,21.00
2018-07-17T06:38:43.821Z,21.10
2018-07-17T06:41:12.155Z,21.10
2018-07-17T06:43:40.552Z,21.20
2018-07-17T06:46:08.880Z,21.20
2018-07-17T06:48:37.234Z,21.20
2018-07-17T06:51:05.662Z,21.20
2018-07-17T06:53:34.071Z,21.20
2018-07-17T06:56:02.438Z,21.20
2018-07-17T06:58:30.900Z,21.30
2018-07-17T07:00:59.268Z,21.40
2018-07-17T07:03:27.599Z,21.40
2018-07-17T07:05:56.042Z,21.30
2018-07-17T07:08:24.417Z,21.40
2018-07-17T07:10:53.082Z,21.50
2018-07-17T07:13:21.399Z,21.60
2018-07-17T07:15:49.774Z,21.60
2018-07-17T07:18:18.152Z,21.50
2018-07-17T07:20:46.522Z,21.60
2018-07-17T07:23:14.936Z,21.70
2018-07-17T07:25:43.323Z,21.70
2018-07-17T07:28:11.660Z,21.80
2018-07-17T07:30:40.049Z,21.90
2018-07-17T07:33:08.459Z,21.90
2018-07-17T07:35:36.792Z,21.80
2018-07-17T07:38:05.153Z,21.80
2018-07-17T07:40:33.514Z,21.90
2018-07-17T07:43:01.878Z,22.00
2018-07-17T07:45:30.213Z,22.00
2018-07-17T07:47:58.559Z,21.90
2018-07-17T07:50:26.871Z,21.80
2018-07-17T07:52:55.450Z,21.90
2018-07-17T07:55:23.810Z,22.00
2018-07-17T07:57:52.171Z,22.00
2018-07-17T08:00:20.496Z,22.00
2018-07-17T08:02:49.134Z,22.10
2018-07-17T08:05:17.545Z,22.20
2018-07-17T08:07:45.889Z,22.20
2018-07-17T08:10:14.468Z,22.20
2018-07-17T08:12:42.799Z,22.20
2018-07-17T08:15:11.142Z,22.30
2018-07-17T08:17:39.511Z,22.30
2018-07-17T08:20:07.887Z,22.40
2018-07-17T08:22:36.246Z,22.30
2018-07-17T08:25:04.650Z,22.30
2018-07-17T08:27:33.024Z,22.40
2018-07-17T08:30:01.461Z,22.40
2018-07-17T08:32:29.792Z,22.50
2018-07-17T08:34:58.133Z,22.50
2018-07-17T08:37:26.558Z,22.50
2018-07-17T08:39:54.914Z,22.50
2018-07-17T08:42:23.268Z,22.60
2018-07-17T08:44:51.659Z,22.60
2018-07-17T08:47:19.996Z,22.60
2018-07-17T08:49:48.370Z,22.60
2018-07-17T08:52:16.723Z,22.70
2018-07-17T08:54:46.017Z,22.90
2018-07-17T08:57:14.378Z,22.90
2018-07-17T08:59:42.699Z,22.90
2018-07-17T09:02:11.044Z,23.00
2018-07-17T09:04:39.365Z,23.00
2018-07-17T09:07:07.848Z,23.00
2018-07-17T09:09:36.146Z,23.00
2018-07-17T09:12:04.538Z,23.10
2018-07-17T09:14:32.895Z,23.30
2018-07-17T09:17:01.255Z,23.50
2018-07-17T09:19:29.633Z,23.60
2018-07-17T09:21:57.952Z,23.60
2018-07-17T09:24:26.298Z,23.50
2018-07-17T09:26:54.708Z,23.40
2018-07-17T09:29:23.168Z,23.40
2018-07-17T09:31:51.528Z,23.50
2018-07-17T09:34:19.880Z,23.40
2018-07-17T09:36:48.244Z,23.20
2018-07-17T09:39:16.690Z,23.10
2018-07-17T09:41:45.030Z,23.00
2018-07-17T09:44:13.395Z,22.90
2018-07-17T09:46:41.697Z,23.00
2018-07-17T09:49:10.039Z,23.00
2018-07-17T09:51:38.362Z,23.00
2018-07-17T09:54:06.737Z,23.20
2018-07-17T09:56:35.083Z,23.30
2018-07-17T09:59:03.457Z,23.50
2018-07-17T10:01:37.073Z,23.40
2018-07-17T10:04:05.370Z,23.30
2018-07-17T10:06:33.685Z,23.20
2018-07-17T10:09:01.993Z,23.10
2018-07-17T10:11:30.350Z,23.10
2018-07-17T10:13:58.682Z,23.10
2018-07-17T10:16:27.084Z,22.90
2018-07-17T10:18:55.433Z,23.00
2018-07-17T10:21:23.796Z,23.20
2018-07-17T10:23:52.168Z,23.20
2018-07-17T10:26:20.523Z,23.40
2018-07-17T10:28:48.854Z,23.60
2018-07-17T10:31:17.365Z,23.50
2018-07-17T10:33:45.690Z,23.50
2018-07-17T10:36:14.103Z,23.80
2018-07-17T10:38:42.490Z,23.80
2018-07-17T10:41:10.964Z,23.90
2018-07-17T10:43:39.249Z,23.80
2018-07-17T10:46:07.613Z,23.80
2018-07-17T10:48:37.125Z,23.70
2018-07-17T10:51:05.498Z,23.80
2018-07-17T10:53:33.779Z,23.30
2018-07-17T10:56:02.106Z,23.50
2018-07-17T10:58:30.452Z,23.70
2018-07-17T11:00:58.830Z,23.70
2018-07-17T11:03:27.060Z,23.80
2018-07-17T11:05:56.263Z,23.70
2018-07-17T11:08:24.673Z,23.80
2018-07-17T11:10:52.947Z,24.00
2018-07-17T11:13:21.310Z,23.80
2018-07-17T11:15:49.906Z,24.00
2018-07-17T11:18:18.242Z,23.60
2018-07-17T11:20:46.658Z,23.90
2018-07-17T11:23:15.034Z,23.80
2018-07-17T11:25:43.421Z,23.10
2018-07-17T11:28:12.044Z,23.50
2018-07-17T11:30:40.331Z,24.20
2018-07-17T11:33:08.622Z,24.20
2018-07-17T11:35:37.017Z,24.60
2018-07-17T11:38:05.319Z,24.10
2018-07-17T11:40:33.645Z,24.10
2018-07-17T11:43:02.000Z,24.60
2018-07-17T11:45:30.332Z,24.70
2018-07-17T11:47:58.655Z,24.80
2018-07-17T11:50:26.950Z,24.80
2018-07-17T11:52:56.148Z,24.70
2018-07-17T11:55:24.492Z,24.70
2018-07-17T11:57:52.859Z,24.60
2018-07-17T12:00:21.222Z,24.90
2018-07-17T12:02:49.550Z,24.90
2018-07-17T12:05:24.334Z,24.80
2018-07-17T12:07:52.579Z,24.70
2018-07-17T12:10:21.052Z,24.50
2018-07-17T12:12:49.503Z,24.60
2018-07-17T12:15:17.769Z,25.00
2018-07-17T12:17:46.150Z,24.40
2018-07-17T12:20:14.566Z,23.80
2018-07-17T12:22:42.912Z,24.10
2018-07-17T12:25:11.254Z,24.30
2018-07-17T12:27:39.572Z,25.10
2018-07-17T12:30:08.043Z,25.20
2018-07-17T12:32:36.354Z,24.60
2018-07-17T12:35:04.740Z,24.30
2018-07-17T12:37:35.193Z,24.20
2018-07-17T12:40:03.614Z,24.20
2018-07-17T12:42:31.982Z,24.10
2018-07-17T12:45:00.338Z,24.40
2018-07-17T12:47:29.231Z,24.60
2018-07-17T12:49:57.676Z,24.70
2018-07-17T12:52:25.944Z,24.50
2018-07-17T12:54:54.292Z,24.40
2018-07-17T12:57:22.594Z,24.30
2018-07-17T12:59:51.416Z,24.60
2018-07-17T13:02:19.733Z,24.90
2018-07-17T13:04:48.187Z,25.00
2018-07-17T13:07:16.521Z,25.00
2018-07-17T13:09:45.072Z,25.40
2018-07-17T13:12:13.451Z,25.80
2018-07-17T13:14:41.869Z,25.20
2018-07-17T13:17:10.227Z,24.90
2018-07-17T13:19:38.694Z,25.10
2018-07-17T13:22:07.013Z,25.20
2018-07-17T13:24:35.641Z,25.30
2018-07-17T13:27:03.986Z,25.20
2018-07-17T13:29:32.311Z,25.20
2018-07-17T13:32:00.767Z,25.10
2018-07-17T13:34:29.098Z,24.50
2018-07-17T13:36:57.646Z,24.40
2018-07-17T13:39:26.002Z,24.40
2018-07-17T13:41:54.380Z,24.40
2018-07-17T13:44:22.739Z,24.40
2018-07-17T13:46:51.100Z,24.40
2018-07-17T13:49:19.438Z,24.20
2018-07-17T13:51:47.753Z,24.00
2018-07-17T13:54:16.120Z,24.00
2018-07-17T13:56:44.470Z,24.40
2018-07-17T13:59:12.846Z,24.10
2018-07-17T14:01:41.171Z,24.00
2018-07-17T14:04:09.534Z,24.80
2018-07-17T14:06:37.922Z,24.70
2018-07-17T14:09:07.794Z,24.80
2018-07-17T14:11:36.244Z,24.00
2018-07-17T14:14:04.690Z,23.90
2018-07-17T14:16:33.332Z,24.40
2018-07-17T14:19:01.712Z,24.70
2018-07-17T14:21:30.052Z,25.00
2018-07-17T14:23:58.432Z,25.30
2018-07-17T14:26:26.819Z,25.10
2018-07-17T14:28:55.190Z,25.20
2018-07-17T14:31:23.489Z,25.20
2018-07-17T14:33:52.178Z,25.20
2018-07-17T14:36:20.505Z,25.10
2018-07-17T14:38:49.314Z,25.50
2018-07-17T14:41:17.712Z,25.00
2018-07-17T14:43:46.051Z,25.40
2018-07-17T14:46:14.403Z,25.10
2018-07-17T14:48:42.807Z,24.90
2018-07-17T14:51:12.847Z,24.10
2018-07-17T14:53:41.168Z,24.10
2018-07-17T14:56:10.028Z,24.10
2018-07-17T14:58:38.363Z,25.00
2018-07-17T15:01:07.235Z,25.20
2018-07-17T15:03:35.776Z,25.50
2018-07-17T15:06:04.366Z,25.60
2018-07-17T15:08:32.758Z,25.70
2018-07-17T15:11:01.121Z,25.40
2018-07-17T15:13:29.436Z,25.40
2018-07-17T15:15:57.921Z,25.50
2018-07-17T15:18:26.234Z,24.80
2018-07-17T15:20:54.638Z,25.00
2018-07-17T15:23:22.991Z,24.80
2018-07-17T15:25:51.329Z,25.10
2018-07-17T15:28:20.456Z,25.70
2018-07-17T15:30:49.142Z,25.50
2018-07-17T15:33:17.503Z,25.50
2018-07-17T15:35:45.808Z,25.70
2018-07-17T15:38:14.222Z,25.60
2018-07-17T15:40:42.530Z,25.50
2018-07-17T15:43:10.930Z,25.40
2018-07-17T15:45:39.294Z,24.80
2018-07-17T15:48:07.942Z,25.40
2018-07-17T15:50:36.270Z,25.50
2018-07-17T15:53:04.627Z,26.20
2018-07-17T15:55:32.964Z,26.70
2018-07-17T15:58:01.247Z,27.30
2018-07-17T16:00:29.565Z,28.10
2018-07-17T16:02:57.912Z,29.80
2018-07-17T16:05:26.394Z,30.90
2018-07-17T16:07:54.718Z,30.40
2018-07-17T16:10:23.707Z,31.20
2018-07-17T16:12:52.128Z,32.00
2018-07-17T16:15:20.617Z,32.50
2018-07-17T16:17:49.025Z,32.10
2018-07-17T16:20:17.997Z,32.80
2018-07-17T16:22:46.332Z,32.50
2018-07-17T16:25:14.686Z,32.50
2018-07-17T16:27:43.132Z,32.30
2018-07-17T16:30:11.482Z,32.00
2018-07-17T16:32:40.016Z,32.80
2018-07-17T16:35:09.280Z,33.20
2018-07-17T16:37:41.001Z,33.80
2018-07-17T16:40:12.258Z,33.40
2018-07-17T16:42:40.658Z,32.20
2018-07-17T16:45:09.021Z,32.40
2018-07-17T16:47:37.600Z,32.40
2018-07-17T16:50:06.085Z,32.40
2018-07-17T16:52:35.041Z,32.80
2018-07-17T16:55:03.441Z,33.70
2018-07-17T16:57:32.044Z,33.50
2018-07-17T17:00:00.565Z,33.30
2018-07-17T17:02:28.909Z,33.40
2018-07-17T17:04:57.239Z,33.00
2018-07-17T17:07:25.559Z,32.90
2018-07-17T17:09:53.900Z,32.20
2018-07-17T17:12:22.287Z,31.80
2018-07-17T17:17:41.369Z,32.30
2018-07-17T17:20:09.879Z,32.40
2018-07-17T17:22:38.264Z,32.20
2018-07-17T18:04:40.519Z,23.50
2018-07-17T18:07:12.206Z,23.40
2018-07-17T18:09:58.119Z,23.20
2018-07-17T18:15:20.952Z,23.00
2018-07-17T18:18:01.475Z,22.80
2018-07-17T18:20:37.027Z,22.60
2018-07-17T18:23:08.762Z,22.70
2018-07-17T18:25:37.354Z,22.60
2018-07-17T18:28:06.664Z,22.60
2018-07-17T18:30:35.150Z,22.40
2018-07-17T18:33:04.387Z,22.60
2018-07-17T18:35:32.966Z,22.50
2018-07-17T18:38:03.188Z,22.50
2018-07-17T18:40:32.706Z,22.50
2018-07-17T18:43:01.431Z,22.40
2018-07-17T18:45:30.107Z,22.30
2018-07-17T18:47:59.461Z,22.10
2018-07-17T18:50:28.023Z,22.10
2018-07-17T18:52:56.685Z,21.90
2018-07-17T18:55:25.365Z,21.80
2018-07-17T18:57:53.963Z,21.70
2018-07-17T19:00:22.660Z,21.70
2018-07-17T19:02:51.313Z,21.70
2018-07-17T19:05:20.095Z,21.80
2018-07-17T19:07:49.128Z,21.70
2018-07-17T19:10:18.433Z,21.70
2018-07-17T19:12:47.210Z,21.60
2018-07-17T19:15:15.972Z,21.50
2018-07-17T19:17:45.751Z,21.40
2018-07-17T19:20:15.053Z,21.40
2018-07-17T19:22:43.651Z,21.30
2018-07-17T19:25:12.424Z,21.40
2018-07-17T19:27:42.269Z,21.40
2018-07-17T19:30:11.188Z,21.30
2018-07-17T19:32:39.756Z,21.30
2018-07-17T19:35:15.059Z,21.20
2018-07-17T19:37:44.441Z,21.00
2018-07-17T19:40:13.331Z,20.90
2018-07-17T19:42:42.710Z,20.80
2018-07-17T19:45:11.561Z,20.80
2018-07-17T19:47:41.316Z,20.80
2018-07-17T19:50:10.269Z,20.80
2018-07-17T19:52:38.961Z,20.80
2018-07-17T19:55:07.536Z,20.70
2018-07-17T19:57:35.974Z,20.60
2018-07-17T20:00:04.947Z,20.50
2018-07-17T20:02:33.312Z,20.50
2018-07-17T20:05:01.737Z,20.50
2018-07-17T20:07:30.367Z,20.50
2018-07-17T20:09:58.823Z,20.50
2018-07-17T20:12:27.471Z,20.40
2018-07-17T20:14:55.942Z,20.40
2018-07-17T20:17:24.318Z,20.30
2018-07-17T20:19:52.731Z,20.30
2018-07-17T20:22:21.165Z,20.30
2018-07-17T20:24:49.552Z,20.30
2018-07-17T20:27:17.889Z,20.30
2018-07-17T20:29:46.709Z,20.30
2018-07-17T20:32:15.098Z,20.30
2018-07-17T20:34:43.522Z,20.30
2018-07-17T20:37:11.885Z,20.70
2018-07-17T20:39:40.261Z,20.80
2018-07-17T20:42:09.371Z,20.80
2018-07-17T20:44:37.698Z,20.90
2018-07-17T20:47:06.325Z,20.70
2018-07-17T20:49:34.678Z,20.60
2018-07-17T20:52:03.147Z,20.90
2018-07-17T20:54:31.595Z,20.80
2018-07-17T20:57:04.671Z,21.00
2018-07-17T20:59:33.111Z,20.50
2018-07-17T21:02:01.498Z,20.20
2018-07-17T21:04:31.870Z,20.30
2018-07-17T21:07:01.229Z,20.30
2018-07-17T21:09:29.597Z,20.60
2018-07-17T21:12:02.177Z,20.50
2018-07-17T21:14:30.581Z,20.80
2018-07-17T21:16:58.889Z,21.00
2018-07-17T21:19:27.208Z,20.40
2018-07-17T21:21:58.619Z,20.20
2018-07-17T21:24:28.170Z,20.30
2018-07-17T21:26:58.031Z,20.40
2018-07-17T21:29:26.559Z,20.80
2018-07-17T21:31:54.963Z,20.30
2018-07-17T21:34:23.425Z,20.00
2018-07-17T21:36:51.805Z,19.80
2018-07-17T21:39:20.270Z,19.70
2018-07-17T21:41:48.691Z,19.60
2018-07-17T21:44:17.080Z,19.50
2018-07-17T21:46:45.461Z,19.40
2018-07-17T21:49:13.961Z,19.40
2018-07-17T21:51:42.332Z,19.30
2018-07-17T21:54:10.718Z,19.30
2018-07-17T21:56:39.124Z,19.30
2018-07-17T21:59:07.510Z,19.20
2018-07-17T22:01:37.223Z,19.30
2018-07-17T22:04:05.821Z,19.20
2018-07-17T22:06:34.236Z,19.20
2018-07-17T22:09:02.762Z,19.10
2018-07-17T22:11:31.159Z,19.10
2018-07-17T22:13:59.610Z,19.00
2018-07-17T22:16:28.018Z,19.00
2018-07-17T22:18:56.601Z,18.90
2018-07-17T22:21:25.134Z,18.80
2018-07-17T22:23:53.470Z,18.90
2018-07-17T22:26:21.851Z,18.90
2018-07-17T22:28:50.218Z,18.90
2018-07-17T22:31:19.022Z,18.80
2018-07-17T22:33:47.684Z,18.80
2018-07-17T22:36:16.139Z,18.80
2018-07-17T22:38:44.768Z,18.70
2018-07-17T22:41:13.225Z,18.70
2018-07-17T22:43:41.622Z,18.60
2018-07-17T22:46:10.033Z,18.60
2018-07-17T22:48:38.382Z,18.60
2018-07-17T22:51:06.923Z,18.50
2018-07-17T22:53:35.367Z,18.50
2018-07-17T22:56:03.734Z,18.50
2018-07-17T22:58:32.106Z,18.50
2018-07-17T23:01:00.532Z,18.50
2018-07-17T23:03:28.912Z,18.50
2018-07-17T23:05:57.279Z,18.50
2018-07-17T23:08:25.730Z,18.40
2018-07-17T23:10:54.101Z,18.30
2018-07-17T23:13:22.579Z,18.30
2018-07-17T23:15:50.955Z,18.20
2018-07-17T23:18:19.339Z,18.20
2018-07-17T23:20:47.749Z,18.20
2018-07-17T23:23:17.865Z,18.20
2018-07-17T23:25:46.250Z,18.20
2018-07-17T23:28:14.747Z,18.20
2018-07-17T23:30:43.133Z,18.10
2018-07-17T23:33:11.549Z,18.10
2018-07-17T23:35:40.028Z,18.10
2018-07-17T23:38:08.407Z,18.10
2018-07-17T23:40:36.902Z,18.10
2018-07-17T23:43:05.375Z,18.10
2018-07-17T23:45:33.859Z,18.10
2018-07-17T23:48:02.250Z,18.10
2018-07-17T23:50:30.656Z,18.00
2018-07-17T23:52:59.077Z,18.00
2018-07-17T23:55:27.511Z,18.00
2018-07-17T23:57:55.904Z,18.00
